sensor_id;sensor_type;location;lat;lon;timestamp;temperature;humidity
17599;DHT22;8918;52.092;5.232;2023-04-19T00:01:01;9.60;99.90
17599;DHT22;8918;52.092;5.232;2023-04-19T00:03:27;9.70;99.90
17599;DHT22;8918;52.092;5.232;2023-04-19T00:05:54;9.70;99.90
17599;DHT22;8918;52.092;5.232;2023-04-19T00:08:23;9.80;99.90
17599;DHT22;8918;52.092;5.232;2023-04-19T00:10:49;9.70;99.90
17599;DHT22;8918;52.092;5.232;2023-04-19T00:13:14;9.80;99.90
17599;DHT22;8918;52.092;5.232;2023-04-19T00:15:40;9.70;99.90
17599;DHT22;8918;52.092;5.232;2023-04-19T00:18:05;9.70;99.90
17599;DHT22;8918;52.092;5.232;2023-04-19T00:20:31;9.70;99.90
17599;DHT22;8918;52.092;5.232;2023-04-19T00:22:57;9.70;99.90
17599;DHT22;8918;52.092;5.232;2023-04-19T00:25:23;9.70;99.90
17599;DHT22;8918;52.092;5.232;2023-04-19T00:27:49;9.70;99.90
17599;DHT22;8918;52.092;5.232;2023-04-19T00:30:15;9.70;99.90
17599;DHT22;8918;52.092;5.232;2023-04-19T00:32:40;9.70;99.90
17599;DHT22;8918;52.092;5.232;2023-04-19T00:35:06;9.70;99.90
17599;DHT22;8918;52.092;5.232;2023-04-19T00:37:32;9.70;99.90
17599;DHT22;8918;52.092;5.232;2023-04-19T00:39:57;9.70;99.90
17599;DHT22;8918;52.092;5.232;2023-04-19T00:42:23;9.60;99.90
17599;DHT22;8918;52.092;5.232;2023-04-19T00:44:48;9.60;99.90
17599;DHT22;8918;52.092;5.232;2023-04-19T00:47:14;9.50;99.90
17599;DHT22;8918;52.092;5.232;2023-04-19T00:49:40;9.50;99.90
17599;DHT22;8918;52.092;5.232;2023-04-19T00:52:07;9.40;99.90
17599;DHT22;8918;52.092;5.232;2023-04-19T00:54:32;9.30;99.90
17599;DHT22;8918;52.092;5.232;2023-04-19T00:56:58;9.30;99.90
17599;DHT22;8918;52.092;5.232;2023-04-19T00:59:24;9.20;99.90
17599;DHT22;8918;52.092;5.232;2023-04-19T01:01:50;9.20;99.90
17599;DHT22;8918;52.092;5.232;2023-04-19T01:04:15;9.20;99.90
17599;DHT22;8918;52.092;5.232;2023-04-19T01:06:41;9.10;99.90
17599;DHT22;8918;52.092;5.232;2023-04-19T01:09:07;9.10;99.90
17599;DHT22;8918;52.092;5.232;2023-04-19T01:11:33;9.10;99.90
17599;DHT22;8918;52.092;5.232;2023-04-19T01:13:59;9.10;99.90
17599;DHT22;8918;52.092;5.232;2023-04-19T01:16:26;9.00;99.90
17599;DHT22;8918;52.092;5.232;2023-04-19T01:18:52;9.00;99.90
17599;DHT22;8918;52.092;5.232;2023-04-19T01:21:17;9.00;99.90
17599;DHT22;8918;52.092;5.232;2023-04-19T01:23:43;8.90;99.90
17599;DHT22;8918;52.092;5.232;2023-04-19T01:26:09;8.90;99.90
17599;DHT22;8918;52.092;5.232;2023-04-19T01:28:35;8.90;99.90
17599;DHT22;8918;52.092;5.232;2023-04-19T01:31:00;8.90;99.90
17599;DHT22;8918;52.092;5.232;2023-04-19T01:33:26;8.80;99.90
17599;DHT22;8918;52.092;5.232;2023-04-19T01:35:51;8.80;99.90
17599;DHT22;8918;52.092;5.232;2023-04-19T01:38:17;8.80;99.90
17599;DHT22;8918;52.092;5.232;2023-04-19T01:40:43;8.90;99.90
17599;DHT22;8918;52.092;5.232;2023-04-19T01:43:11;8.90;99.90
17599;DHT22;8918;52.092;5.232;2023-04-19T01:45:37;9.00;99.90
17599;DHT22;8918;52.092;5.232;2023-04-19T01:48:03;9.00;99.90
17599;DHT22;8918;52.092;5.232;2023-04-19T01:50:29;9.00;99.90
17599;DHT22;8918;52.092;5.232;2023-04-19T01:52:55;9.00;99.90
17599;DHT22;8918;52.092;5.232;2023-04-19T01:55:21;9.00;99.90
17599;DHT22;8918;52.092;5.232;2023-04-19T01:57:47;9.00;99.90
17599;DHT22;8918;52.092;5.232;2023-04-19T02:00:12;9.00;99.90
17599;DHT22;8918;52.092;5.232;2023-04-19T02:02:39;9.00;99.90
17599;DHT22;8918;52.092;5.232;2023-04-19T02:05:05;9.00;99.90
17599;DHT22;8918;52.092;5.232;2023-04-19T02:07:31;9.00;99.90
17599;DHT22;8918;52.092;5.232;2023-04-19T02:09:57;9.00;99.90
17599;DHT22;8918;52.092;5.232;2023-04-19T02:12:27;9.10;99.90
17599;DHT22;8918;52.092;5.232;2023-04-19T02:14:56;9.10;99.90
17599;DHT22;8918;52.092;5.232;2023-04-19T02:17:23;9.10;99.90
17599;DHT22;8918;52.092;5.232;2023-04-19T02:19:48;9.10;99.90
17599;DHT22;8918;52.092;5.232;2023-04-19T02:22:14;9.10;99.90
17599;DHT22;8918;52.092;5.232;2023-04-19T02:24:39;9.10;99.90
17599;DHT22;8918;52.092;5.232;2023-04-19T02:27:05;9.10;99.90
17599;DHT22;8918;52.092;5.232;2023-04-19T02:29:31;9.20;99.90
17599;DHT22;8918;52.092;5.232;2023-04-19T02:31:57;9.20;99.90
17599;DHT22;8918;52.092;5.232;2023-04-19T02:34:22;9.20;99.90
17599;DHT22;8918;52.092;5.232;2023-04-19T02:36:48;9.20;99.90
17599;DHT22;8918;52.092;5.232;2023-04-19T02:39:14;9.20;99.90
17599;DHT22;8918;52.092;5.232;2023-04-19T02:41:40;9.20;99.90
17599;DHT22;8918;52.092;5.232;2023-04-19T02:44:05;9.30;99.90
17599;DHT22;8918;52.092;5.232;2023-04-19T02:46:31;9.30;99.90
17599;DHT22;8918;52.092;5.232;2023-04-19T02:48:56;9.30;99.90
17599;DHT22;8918;52.092;5.232;2023-04-19T02:51:24;9.20;99.90
17599;DHT22;8918;52.092;5.232;2023-04-19T02:53:51;9.30;99.90
17599;DHT22;8918;52.092;5.232;2023-04-19T02:56:17;9.30;99.90
17599;DHT22;8918;52.092;5.232;2023-04-19T02:58:42;9.20;99.90
17599;DHT22;8918;52.092;5.232;2023-04-19T03:01:08;9.30;99.90
17599;DHT22;8918;52.092;5.232;2023-04-19T03:03:34;9.20;99.90
17599;DHT22;8918;52.092;5.232;2023-04-19T03:05:59;9.30;99.90
17599;DHT22;8918;52.092;5.232;2023-04-19T03:08:25;9.30;99.90
17599;DHT22;8918;52.092;5.232;2023-04-19T03:10:51;9.30;99.90
17599;DHT22;8918;52.092;5.232;2023-04-19T03:13:16;9.30;99.90
17599;DHT22;8918;52.092;5.232;2023-04-19T03:15:42;9.40;99.90
17599;DHT22;8918;52.092;5.232;2023-04-19T03:18:07;9.30;99.90
17599;DHT22;8918;52.092;5.232;2023-04-19T03:20:33;9.40;99.90
17599;DHT22;8918;52.092;5.232;2023-04-19T03:22:58;9.40;99.90
17599;DHT22;8918;52.092;5.232;2023-04-19T03:25:24;9.40;99.90
17599;DHT22;8918;52.092;5.232;2023-04-19T03:27:50;9.40;99.90
17599;DHT22;8918;52.092;5.232;2023-04-19T03:30:16;9.40;99.90
17599;DHT22;8918;52.092;5.232;2023-04-19T03:32:42;9.50;99.90
17599;DHT22;8918;52.092;5.232;2023-04-19T03:35:08;9.40;99.90
17599;DHT22;8918;52.092;5.232;2023-04-19T03:37:34;9.50;99.90
17599;DHT22;8918;52.092;5.232;2023-04-19T03:40:00;9.50;99.90
17599;DHT22;8918;52.092;5.232;2023-04-19T03:42:26;9.40;99.90
17599;DHT22;8918;52.092;5.232;2023-04-19T03:44:51;9.50;99.90
17599;DHT22;8918;52.092;5.232;2023-04-19T03:47:17;9.50;99.90
17599;DHT22;8918;52.092;5.232;2023-04-19T03:49:42;9.40;99.90
17599;DHT22;8918;52.092;5.232;2023-04-19T03:52:08;9.50;99.90
17599;DHT22;8918;52.092;5.232;2023-04-19T03:54:33;9.40;99.90
17599;DHT22;8918;52.092;5.232;2023-04-19T03:56:59;9.40;99.90
17599;DHT22;8918;52.092;5.232;2023-04-19T03:59:25;9.50;99.90
17599;DHT22;8918;52.092;5.232;2023-04-19T04:01:50;9.40;99.90
17599;DHT22;8918;52.092;5.232;2023-04-19T04:04:16;9.50;99.90
17599;DHT22;8918;52.092;5.232;2023-04-19T04:06:41;9.50;99.90
17599;DHT22;8918;52.092;5.232;2023-04-19T04:09:07;9.50;99.90
17599;DHT22;8918;52.092;5.232;2023-04-19T04:11:33;9.50;99.90
17599;DHT22;8918;52.092;5.232;2023-04-19T04:13:58;9.40;99.90
17599;DHT22;8918;52.092;5.232;2023-04-19T04:16:24;9.40;99.90
17599;DHT22;8918;52.092;5.232;2023-04-19T04:18:50;9.40;99.90
17599;DHT22;8918;52.092;5.232;2023-04-19T04:21:15;9.40;99.90
17599;DHT22;8918;52.092;5.232;2023-04-19T04:23:41;9.30;99.90
17599;DHT22;8918;52.092;5.232;2023-04-19T04:26:06;9.20;99.90
17599;DHT22;8918;52.092;5.232;2023-04-19T04:28:34;9.20;99.90
17599;DHT22;8918;52.092;5.232;2023-04-19T04:31:00;9.10;99.90
17599;DHT22;8918;52.092;5.232;2023-04-19T04:33:26;9.10;99.90
17599;DHT22;8918;52.092;5.232;2023-04-19T04:35:53;9.00;99.90
17599;DHT22;8918;52.092;5.232;2023-04-19T04:38:20;9.00;99.90
17599;DHT22;8918;52.092;5.232;2023-04-19T04:40:52;8.90;99.90
17599;DHT22;8918;52.092;5.232;2023-04-19T04:43:22;8.90;99.90
17599;DHT22;8918;52.092;5.232;2023-04-19T04:45:48;8.90;99.90
17599;DHT22;8918;52.092;5.232;2023-04-19T04:48:14;8.80;99.90
17599;DHT22;8918;52.092;5.232;2023-04-19T04:50:40;8.80;99.90
17599;DHT22;8918;52.092;5.232;2023-04-19T04:53:06;8.80;99.90
17599;DHT22;8918;52.092;5.232;2023-04-19T04:55:33;8.70;99.90
17599;DHT22;8918;52.092;5.232;2023-04-19T04:57:58;8.70;99.90
17599;DHT22;8918;52.092;5.232;2023-04-19T05:00:24;8.70;99.90
17599;DHT22;8918;52.092;5.232;2023-04-19T05:02:50;8.70;99.90
17599;DHT22;8918;52.092;5.232;2023-04-19T05:05:15;8.60;99.90
17599;DHT22;8918;52.092;5.232;2023-04-19T05:07:41;8.60;99.90
17599;DHT22;8918;52.092;5.232;2023-04-19T05:10:07;8.60;99.90
17599;DHT22;8918;52.092;5.232;2023-04-19T05:12:33;8.60;99.90
17599;DHT22;8918;52.092;5.232;2023-04-19T05:14:59;8.60;99.90
17599;DHT22;8918;52.092;5.232;2023-04-19T05:17:24;8.60;99.90
17599;DHT22;8918;52.092;5.232;2023-04-19T05:19:50;8.60;99.90
17599;DHT22;8918;52.092;5.232;2023-04-19T05:22:16;8.60;99.90
17599;DHT22;8918;52.092;5.232;2023-04-19T05:24:41;8.60;99.90
17599;DHT22;8918;52.092;5.232;2023-04-19T05:27:07;8.60;99.90
17599;DHT22;8918;52.092;5.232;2023-04-19T05:29:34;8.70;99.90
17599;DHT22;8918;52.092;5.232;2023-04-19T05:31:59;8.70;99.90
17599;DHT22;8918;52.092;5.232;2023-04-19T05:34:25;8.70;99.90
17599;DHT22;8918;52.092;5.232;2023-04-19T05:36:51;8.70;99.90
17599;DHT22;8918;52.092;5.232;2023-04-19T05:39:16;8.70;99.90
17599;DHT22;8918;52.092;5.232;2023-04-19T05:41:42;8.70;99.90
17599;DHT22;8918;52.092;5.232;2023-04-19T05:44:07;8.70;99.90
17599;DHT22;8918;52.092;5.232;2023-04-19T05:46:33;8.80;99.90
17599;DHT22;8918;52.092;5.232;2023-04-19T05:48:59;8.80;99.90
17599;DHT22;8918;52.092;5.232;2023-04-19T05:51:24;8.80;99.90
17599;DHT22;8918;52.092;5.232;2023-04-19T05:53:50;8.90;99.90
17599;DHT22;8918;52.092;5.232;2023-04-19T05:56:16;8.90;99.90
17599;DHT22;8918;52.092;5.232;2023-04-19T05:58:41;8.90;99.90
17599;DHT22;8918;52.092;5.232;2023-04-19T06:01:07;8.90;99.90
17599;DHT22;8918;52.092;5.232;2023-04-19T06:03:32;9.00;99.90
17599;DHT22;8918;52.092;5.232;2023-04-19T06:05:58;9.00;99.90
17599;DHT22;8918;52.092;5.232;2023-04-19T06:08:24;9.00;99.90
17599;DHT22;8918;52.092;5.232;2023-04-19T06:10:51;9.00;99.90
17599;DHT22;8918;52.092;5.232;2023-04-19T06:13:18;9.10;99.90
17599;DHT22;8918;52.092;5.232;2023-04-19T06:15:44;9.20;99.90
17599;DHT22;8918;52.092;5.232;2023-04-19T06:18:10;9.20;99.90
17599;DHT22;8918;52.092;5.232;2023-04-19T06:20:36;9.30;99.90
17599;DHT22;8918;52.092;5.232;2023-04-19T06:23:02;9.40;99.90
17599;DHT22;8918;52.092;5.232;2023-04-19T06:25:28;9.40;99.90
17599;DHT22;8918;52.092;5.232;2023-04-19T06:27:53;9.50;99.90
17599;DHT22;8918;52.092;5.232;2023-04-19T06:30:19;9.60;99.90
17599;DHT22;8918;52.092;5.232;2023-04-19T06:32:45;9.60;99.90
17599;DHT22;8918;52.092;5.232;2023-04-19T06:35:10;9.60;99.90
17599;DHT22;8918;52.092;5.232;2023-04-19T06:37:36;9.70;99.90
17599;DHT22;8918;52.092;5.232;2023-04-19T06:40:02;9.70;99.90
17599;DHT22;8918;52.092;5.232;2023-04-19T06:42:29;9.80;99.90
17599;DHT22;8918;52.092;5.232;2023-04-19T06:44:55;9.90;99.90
17599;DHT22;8918;52.092;5.232;2023-04-19T06:47:21;10.00;99.90
17599;DHT22;8918;52.092;5.232;2023-04-19T06:49:48;10.10;99.90
17599;DHT22;8918;52.092;5.232;2023-04-19T06:52:13;10.10;99.90
17599;DHT22;8918;52.092;5.232;2023-04-19T06:54:39;10.20;99.90
17599;DHT22;8918;52.092;5.232;2023-04-19T06:57:05;10.30;99.90
17599;DHT22;8918;52.092;5.232;2023-04-19T06:59:30;10.30;99.90
17599;DHT22;8918;52.092;5.232;2023-04-19T07:01:56;10.40;99.90
17599;DHT22;8918;52.092;5.232;2023-04-19T07:04:24;10.50;99.90
17599;DHT22;8918;52.092;5.232;2023-04-19T07:06:49;10.50;99.90
17599;DHT22;8918;52.092;5.232;2023-04-19T07:09:15;10.60;99.90
17599;DHT22;8918;52.092;5.232;2023-04-19T07:11:40;10.70;99.90
17599;DHT22;8918;52.092;5.232;2023-04-19T07:14:06;10.70;99.90
17599;DHT22;8918;52.092;5.232;2023-04-19T07:16:32;10.80;99.90
17599;DHT22;8918;52.092;5.232;2023-04-19T07:18:57;10.80;99.90
17599;DHT22;8918;52.092;5.232;2023-04-19T07:21:23;11.00;99.90
17599;DHT22;8918;52.092;5.232;2023-04-19T07:23:57;11.00;99.90
17599;DHT22;8918;52.092;5.232;2023-04-19T07:26:22;11.00;99.90
17599;DHT22;8918;52.092;5.232;2023-04-19T07:28:48;11.10;99.90
17599;DHT22;8918;52.092;5.232;2023-04-19T07:31:18;11.10;99.90
17599;DHT22;8918;52.092;5.232;2023-04-19T07:33:44;11.10;99.90
17599;DHT22;8918;52.092;5.232;2023-04-19T07:36:10;11.20;99.90
17599;DHT22;8918;52.092;5.232;2023-04-19T07:38:35;11.30;99.90
17599;DHT22;8918;52.092;5.232;2023-04-19T07:41:02;11.30;99.90
17599;DHT22;8918;52.092;5.232;2023-04-19T07:43:31;11.40;99.90
17599;DHT22;8918;52.092;5.232;2023-04-19T07:45:57;11.40;99.90
17599;DHT22;8918;52.092;5.232;2023-04-19T07:48:23;11.50;99.90
17599;DHT22;8918;52.092;5.232;2023-04-19T07:50:48;11.50;99.90
17599;DHT22;8918;52.092;5.232;2023-04-19T07:53:14;11.50;99.90
17599;DHT22;8918;52.092;5.232;2023-04-19T07:55:40;11.50;99.90
17599;DHT22;8918;52.092;5.232;2023-04-19T07:58:06;11.50;99.90
17599;DHT22;8918;52.092;5.232;2023-04-19T08:00:31;11.50;99.90
17599;DHT22;8918;52.092;5.232;2023-04-19T08:03:01;11.60;99.90
17599;DHT22;8918;52.092;5.232;2023-04-19T08:05:26;11.70;99.90
17599;DHT22;8918;52.092;5.232;2023-04-19T08:07:52;11.70;99.90
17599;DHT22;8918;52.092;5.232;2023-04-19T08:10:18;11.80;99.90
17599;DHT22;8918;52.092;5.232;2023-04-19T08:12:44;11.90;99.90
17599;DHT22;8918;52.092;5.232;2023-04-19T08:15:09;12.00;99.90
17599;DHT22;8918;52.092;5.232;2023-04-19T08:17:35;12.00;99.90
17599;DHT22;8918;52.092;5.232;2023-04-19T08:20:01;12.10;99.90
17599;DHT22;8918;52.092;5.232;2023-04-19T08:22:27;12.10;99.90
17599;DHT22;8918;52.092;5.232;2023-04-19T08:24:52;12.10;99.90
17599;DHT22;8918;52.092;5.232;2023-04-19T08:27:18;12.20;99.90
17599;DHT22;8918;52.092;5.232;2023-04-19T08:29:45;12.20;99.90
17599;DHT22;8918;52.092;5.232;2023-04-19T08:32:11;12.30;99.90
17599;DHT22;8918;52.092;5.232;2023-04-19T08:34:38;12.30;99.90
17599;DHT22;8918;52.092;5.232;2023-04-19T08:37:04;12.30;99.90
17599;DHT22;8918;52.092;5.232;2023-04-19T08:39:30;12.30;99.90
17599;DHT22;8918;52.092;5.232;2023-04-19T08:42:05;12.40;99.90
17599;DHT22;8918;52.092;5.232;2023-04-19T08:44:32;12.70;99.90
17599;DHT22;8918;52.092;5.232;2023-04-19T08:46:59;12.90;99.90
17599;DHT22;8918;52.092;5.232;2023-04-19T08:49:26;13.00;99.90
17599;DHT22;8918;52.092;5.232;2023-04-19T08:51:53;13.10;99.90
17599;DHT22;8918;52.092;5.232;2023-04-19T08:54:20;13.00;99.90
17599;DHT22;8918;52.092;5.232;2023-04-19T08:56:48;13.10;99.90
17599;DHT22;8918;52.092;5.232;2023-04-19T08:59:13;13.10;99.90
17599;DHT22;8918;52.092;5.232;2023-04-19T09:01:39;13.10;99.90
17599;DHT22;8918;52.092;5.232;2023-04-19T09:04:05;13.20;99.90
17599;DHT22;8918;52.092;5.232;2023-04-19T09:06:38;13.40;99.90
17599;DHT22;8918;52.092;5.232;2023-04-19T09:09:20;13.30;99.90
17599;DHT22;8918;52.092;5.232;2023-04-19T09:11:46;13.50;99.90
17599;DHT22;8918;52.092;5.232;2023-04-19T09:14:16;13.60;99.90
17599;DHT22;8918;52.092;5.232;2023-04-19T09:16:43;13.70;99.90
17599;DHT22;8918;52.092;5.232;2023-04-19T09:19:09;13.70;99.90
17599;DHT22;8918;52.092;5.232;2023-04-19T09:21:35;13.80;99.90
17599;DHT22;8918;52.092;5.232;2023-04-19T09:24:02;13.90;99.90
17599;DHT22;8918;52.092;5.232;2023-04-19T09:26:28;14.10;99.90
17599;DHT22;8918;52.092;5.232;2023-04-19T09:28:58;14.10;99.40
17599;DHT22;8918;52.092;5.232;2023-04-19T09:31:33;14.10;99.10
17599;DHT22;8918;52.092;5.232;2023-04-19T09:34:15;14.20;98.80
17599;DHT22;8918;52.092;5.232;2023-04-19T09:36:42;14.20;99.00
17599;DHT22;8918;52.092;5.232;2023-04-19T09:39:07;14.30;98.70
17599;DHT22;8918;52.092;5.232;2023-04-19T09:41:33;14.40;98.40
17599;DHT22;8918;52.092;5.232;2023-04-19T09:44:09;14.50;98.70
17599;DHT22;8918;52.092;5.232;2023-04-19T09:46:40;14.50;97.30
17599;DHT22;8918;52.092;5.232;2023-04-19T09:51:55;14.50;97.70
17599;DHT22;8918;52.092;5.232;2023-04-19T09:54:25;14.60;96.70
17599;DHT22;8918;52.092;5.232;2023-04-19T09:56:54;14.50;96.40
17599;DHT22;8918;52.092;5.232;2023-04-19T09:59:19;14.50;97.30
17599;DHT22;8918;52.092;5.232;2023-04-19T10:01:47;14.50;97.20
17599;DHT22;8918;52.092;5.232;2023-04-19T10:04:15;14.50;97.90
17599;DHT22;8918;52.092;5.232;2023-04-19T10:06:47;14.50;98.10
17599;DHT22;8918;52.092;5.232;2023-04-19T10:09:13;14.70;97.60
17599;DHT22;8918;52.092;5.232;2023-04-19T10:11:39;14.90;97.90
17599;DHT22;8918;52.092;5.232;2023-04-19T10:14:09;15.10;97.90
17599;DHT22;8918;52.092;5.232;2023-04-19T10:16:38;15.10;96.60
17599;DHT22;8918;52.092;5.232;2023-04-19T10:19:08;15.10;97.50
17599;DHT22;8918;52.092;5.232;2023-04-19T10:21:34;15.20;98.00
17599;DHT22;8918;52.092;5.232;2023-04-19T10:24:01;15.40;96.70
17599;DHT22;8918;52.092;5.232;2023-04-19T10:26:27;15.50;96.40
17599;DHT22;8918;52.092;5.232;2023-04-19T10:28:56;15.40;97.00
17599;DHT22;8918;52.092;5.232;2023-04-19T10:31:24;15.60;96.60
17599;DHT22;8918;52.092;5.232;2023-04-19T10:33:51;15.70;96.90
17599;DHT22;8918;52.092;5.232;2023-04-19T10:36:17;15.80;95.90
17599;DHT22;8918;52.092;5.232;2023-04-19T10:38:47;15.60;95.80
17599;DHT22;8918;52.092;5.232;2023-04-19T10:41:19;15.60;95.60
17599;DHT22;8918;52.092;5.232;2023-04-19T10:48:52;15.90;97.30
17599;DHT22;8918;52.092;5.232;2023-04-19T10:51:37;16.10;95.30
17599;DHT22;8918;52.092;5.232;2023-04-19T10:54:54;16.10;94.60
17599;DHT22;8918;52.092;5.232;2023-04-19T10:57:07;16.30;95.00
17599;DHT22;8918;52.092;5.232;2023-04-19T10:59:34;16.50;95.00
17599;DHT22;8918;52.092;5.232;2023-04-19T11:02:01;16.90;94.90
17599;DHT22;8918;52.092;5.232;2023-04-19T11:06:57;17.20;93.70
17599;DHT22;8918;52.092;5.232;2023-04-19T11:12:07;17.50;93.00
17599;DHT22;8918;52.092;5.232;2023-04-19T11:14:34;17.40;92.90
17599;DHT22;8918;52.092;5.232;2023-04-19T11:17:03;17.50;93.20
17599;DHT22;8918;52.092;5.232;2023-04-19T11:19:29;17.40;92.00
17599;DHT22;8918;52.092;5.232;2023-04-19T11:21:57;17.30;91.90
17599;DHT22;8918;52.092;5.232;2023-04-19T11:24:23;17.30;91.80
17599;DHT22;8918;52.092;5.232;2023-04-19T11:26:49;18.10;91.10
17599;DHT22;8918;52.092;5.232;2023-04-19T11:29:14;19.00;90.90
17599;DHT22;8918;52.092;5.232;2023-04-19T11:31:43;20.40;86.70
17599;DHT22;8918;52.092;5.232;2023-04-19T11:34:10;21.20;83.50
17599;DHT22;8918;52.092;5.232;2023-04-19T11:36:49;21.70;80.50
17599;DHT22;8918;52.092;5.232;2023-04-19T11:39:15;22.10;79.70
17599;DHT22;8918;52.092;5.232;2023-04-19T11:41:41;22.50;77.90
17599;DHT22;8918;52.092;5.232;2023-04-19T11:44:17;22.90;75.80
17599;DHT22;8918;52.092;5.232;2023-04-19T11:47:03;23.40;74.40
17599;DHT22;8918;52.092;5.232;2023-04-19T11:49:31;23.40;76.60
17599;DHT22;8918;52.092;5.232;2023-04-19T11:51:58;23.90;72.20
17599;DHT22;8918;52.092;5.232;2023-04-19T11:54:24;24.10;71.60
17599;DHT22;8918;52.092;5.232;2023-04-19T11:57:05;24.10;73.70
17599;DHT22;8918;52.092;5.232;2023-04-19T11:59:32;24.20;70.40
17599;DHT22;8918;52.092;5.232;2023-04-19T12:02:09;24.00;71.00
17599;DHT22;8918;52.092;5.232;2023-04-19T12:04:35;24.10;68.20
17599;DHT22;8918;52.092;5.232;2023-04-19T12:07:02;23.90;68.50
17599;DHT22;8918;52.092;5.232;2023-04-19T12:09:28;24.00;67.10
17599;DHT22;8918;52.092;5.232;2023-04-19T12:11:54;23.70;65.10
17599;DHT22;8918;52.092;5.232;2023-04-19T12:14:21;23.90;65.10
17599;DHT22;8918;52.092;5.232;2023-04-19T12:19:40;24.00;65.30
17599;DHT22;8918;52.092;5.232;2023-04-19T12:22:08;23.90;63.00
17599;DHT22;8918;52.092;5.232;2023-04-19T12:24:33;23.40;62.60
17599;DHT22;8918;52.092;5.232;2023-04-19T12:26:59;23.10;62.60
17599;DHT22;8918;52.092;5.232;2023-04-19T12:29:26;22.60;61.60
17599;DHT22;8918;52.092;5.232;2023-04-19T12:31:51;22.60;62.90
17599;DHT22;8918;52.092;5.232;2023-04-19T12:34:17;22.30;62.30
17599;DHT22;8918;52.092;5.232;2023-04-19T12:36:43;22.00;63.10
17599;DHT22;8918;52.092;5.232;2023-04-19T12:39:08;21.60;64.70
17599;DHT22;8918;52.092;5.232;2023-04-19T12:41:34;21.40;64.20
17599;DHT22;8918;52.092;5.232;2023-04-19T12:43:59;21.30;65.20
17599;DHT22;8918;52.092;5.232;2023-04-19T12:46:25;21.00;63.90
17599;DHT22;8918;52.092;5.232;2023-04-19T12:48:51;20.90;63.10
17599;DHT22;8918;52.092;5.232;2023-04-19T12:51:16;20.60;65.00
17599;DHT22;8918;52.092;5.232;2023-04-19T12:53:47;20.50;64.80
17599;DHT22;8918;52.092;5.232;2023-04-19T12:56:13;20.40;65.50
17599;DHT22;8918;52.092;5.232;2023-04-19T12:58:40;20.50;67.00
17599;DHT22;8918;52.092;5.232;2023-04-19T13:01:06;20.60;65.60
17599;DHT22;8918;52.092;5.232;2023-04-19T13:03:31;20.60;67.30
17599;DHT22;8918;52.092;5.232;2023-04-19T13:06:01;20.50;67.40
17599;DHT22;8918;52.092;5.232;2023-04-19T13:08:27;20.40;66.10
17599;DHT22;8918;52.092;5.232;2023-04-19T13:10:54;20.20;66.30
17599;DHT22;8918;52.092;5.232;2023-04-19T13:13:20;20.30;66.70
17599;DHT22;8918;52.092;5.232;2023-04-19T13:15:46;20.30;65.20
17599;DHT22;8918;52.092;5.232;2023-04-19T13:18:11;20.30;65.80
17599;DHT22;8918;52.092;5.232;2023-04-19T13:20:37;20.50;65.80
17599;DHT22;8918;52.092;5.232;2023-04-19T13:23:02;20.50;66.80
17599;DHT22;8918;52.092;5.232;2023-04-19T13:25:28;20.80;66.20
17599;DHT22;8918;52.092;5.232;2023-04-19T13:27:54;20.80;66.30
17599;DHT22;8918;52.092;5.232;2023-04-19T13:30:19;21.20;66.10
17599;DHT22;8918;52.092;5.232;2023-04-19T13:32:45;21.30;67.90
17599;DHT22;8918;52.092;5.232;2023-04-19T13:35:10;21.30;65.90
17599;DHT22;8918;52.092;5.232;2023-04-19T13:37:36;20.80;66.20
17599;DHT22;8918;52.092;5.232;2023-04-19T13:40:02;20.70;67.10
17599;DHT22;8918;52.092;5.232;2023-04-19T13:42:28;20.90;68.80
17599;DHT22;8918;52.092;5.232;2023-04-19T13:44:54;21.10;69.60
17599;DHT22;8918;52.092;5.232;2023-04-19T13:47:20;21.10;72.00
17599;DHT22;8918;52.092;5.232;2023-04-19T13:49:46;20.90;69.60
17599;DHT22;8918;52.092;5.232;2023-04-19T13:52:17;20.70;71.60
17599;DHT22;8918;52.092;5.232;2023-04-19T13:54:42;20.60;70.60
17599;DHT22;8918;52.092;5.232;2023-04-19T13:57:08;20.60;71.20
17599;DHT22;8918;52.092;5.232;2023-04-19T13:59:33;20.30;71.30
17599;DHT22;8918;52.092;5.232;2023-04-19T14:01:59;20.20;70.70
17599;DHT22;8918;52.092;5.232;2023-04-19T14:04:26;19.90;71.60
17599;DHT22;8918;52.092;5.232;2023-04-19T14:06:52;19.80;70.90
17599;DHT22;8918;52.092;5.232;2023-04-19T14:09:18;19.80;71.00
17599;DHT22;8918;52.092;5.232;2023-04-19T14:11:43;19.90;71.70
17599;DHT22;8918;52.092;5.232;2023-04-19T14:14:09;20.00;70.10
17599;DHT22;8918;52.092;5.232;2023-04-19T14:16:34;19.80;70.30
17599;DHT22;8918;52.092;5.232;2023-04-19T14:19:00;20.00;68.80
17599;DHT22;8918;52.092;5.232;2023-04-19T14:21:26;20.10;69.60
17599;DHT22;8918;52.092;5.232;2023-04-19T14:23:52;20.30;68.90
17599;DHT22;8918;52.092;5.232;2023-04-19T14:26:18;20.30;70.40
17599;DHT22;8918;52.092;5.232;2023-04-19T14:28:43;20.20;69.30
17599;DHT22;8918;52.092;5.232;2023-04-19T14:31:09;20.50;69.60
17599;DHT22;8918;52.092;5.232;2023-04-19T14:33:35;20.90;69.00
17599;DHT22;8918;52.092;5.232;2023-04-19T14:36:00;21.00;68.90
17599;DHT22;8918;52.092;5.232;2023-04-19T14:38:26;20.90;67.90
17599;DHT22;8918;52.092;5.232;2023-04-19T14:40:51;21.00;68.20
17599;DHT22;8918;52.092;5.232;2023-04-19T14:43:17;21.20;67.30
17599;DHT22;8918;52.092;5.232;2023-04-19T14:45:43;21.10;68.10
17599;DHT22;8918;52.092;5.232;2023-04-19T14:48:08;21.10;69.30
17599;DHT22;8918;52.092;5.232;2023-04-19T14:50:34;21.00;69.50
17599;DHT22;8918;52.092;5.232;2023-04-19T14:53:00;21.00;67.50
17599;DHT22;8918;52.092;5.232;2023-04-19T14:55:25;20.80;67.60
17599;DHT22;8918;52.092;5.232;2023-04-19T14:57:52;20.90;69.40
17599;DHT22;8918;52.092;5.232;2023-04-19T15:00:18;21.20;68.70
17599;DHT22;8918;52.092;5.232;2023-04-19T15:02:44;21.30;66.10
17599;DHT22;8918;52.092;5.232;2023-04-19T15:05:09;21.70;64.10
17599;DHT22;8918;52.092;5.232;2023-04-19T15:07:35;21.70;66.40
17599;DHT22;8918;52.092;5.232;2023-04-19T15:10:00;22.00;65.70
17599;DHT22;8918;52.092;5.232;2023-04-19T15:12:26;22.10;63.70
17599;DHT22;8918;52.092;5.232;2023-04-19T15:14:51;22.20;65.30
17599;DHT22;8918;52.092;5.232;2023-04-19T15:17:18;22.40;64.70
17599;DHT22;8918;52.092;5.232;2023-04-19T15:19:43;22.60;65.20
17599;DHT22;8918;52.092;5.232;2023-04-19T15:22:11;22.70;64.80
17599;DHT22;8918;52.092;5.232;2023-04-19T15:24:36;22.90;65.30
17599;DHT22;8918;52.092;5.232;2023-04-19T15:27:02;22.60;67.10
17599;DHT22;8918;52.092;5.232;2023-04-19T15:29:28;22.30;68.60
17599;DHT22;8918;52.092;5.232;2023-04-19T15:31:54;21.90;70.10
17599;DHT22;8918;52.092;5.232;2023-04-19T15:34:20;21.90;70.40
17599;DHT22;8918;52.092;5.232;2023-04-19T15:36:45;21.90;71.50
17599;DHT22;8918;52.092;5.232;2023-04-19T15:39:11;21.80;71.20
17599;DHT22;8918;52.092;5.232;2023-04-19T15:41:36;22.10;71.40
17599;DHT22;8918;52.092;5.232;2023-04-19T15:44:02;22.70;71.00
17599;DHT22;8918;52.092;5.232;2023-04-19T15:46:27;23.40;70.80
17599;DHT22;8918;52.092;5.232;2023-04-19T15:48:53;23.80;70.90
17599;DHT22;8918;52.092;5.232;2023-04-19T15:51:19;23.90;70.20
17599;DHT22;8918;52.092;5.232;2023-04-19T15:53:44;23.90;70.80
17599;DHT22;8918;52.092;5.232;2023-04-19T15:56:10;24.30;71.10
17599;DHT22;8918;52.092;5.232;2023-04-19T15:58:36;25.00;69.50
17599;DHT22;8918;52.092;5.232;2023-04-19T16:01:01;24.80;69.30
17599;DHT22;8918;52.092;5.232;2023-04-19T16:03:27;25.20;69.10